Time;durP1;ratioP1;P1;durP2;ratioP2;P2;SDS_P1;SDS_P2;PMS_P1;PMS_P2;Temp;Humidity;BMP_temperature;BMP_pressure;BME280_temperature;BME280_humidity;BME280_pressure;Samples;Min_cycle;Max_cycle;Signal;HPM_P1;HPM_P2
2022/01/14 00:02:02;;;;;;;7.83;7.13;;;15.20;55.60;16.10;102924.00;;;;5027726;28;20168;-50
2022/01/14 00:04:28;;;;;;;7.87;7.17;;;15.20;55.60;16.00;102933.00;;;;5028067;28;20261;-50
2022/01/14 00:06:53;;;;;;;7.90;7.20;;;15.20;55.60;16.00;102921.00;;;;5029073;28;20214;-49
2022/01/14 00:09:19;;;;;;;7.97;7.27;;;15.20;55.60;16.00;102918.00;;;;5028834;28;20174;-51
2022/01/14 00:11:51;;;;;;;7.37;6.67;;;15.10;55.50;16.00;102907.00;;;;5032804;28;20934;-50
2022/01/14 00:16:43;;;;;;;7.70;7.00;;;15.10;55.60;16.00;102918.00;;;;5014213;28;20199;-49
2022/01/14 00:19:09;;;;;;;7.30;6.70;;;15.10;55.50;15.90;102905.00;;;;5009815;28;20179;-49
2022/01/14 00:21:37;;;;;;;7.83;7.13;;;15.00;55.40;15.90;102913.00;;;;5011907;28;20310;-49
2022/01/14 00:24:10;;;;;;;7.73;7.03;;;15.00;55.60;15.90;102905.00;;;;5011689;28;20172;-49
2022/01/14 00:32:36;;;;;;;7.83;7.13;;;14.90;55.70;15.80;102902.00;;;;5008245;28;20158;-48
2022/01/14 00:34:52;;;;;;;7.47;6.77;;;14.90;55.90;15.70;102900.00;;;;5007182;28;20563;-49
2022/01/14 00:37:18;;;;;;;7.70;7.00;;;14.90;55.80;15.70;102903.00;;;;5007850;28;20192;-49
2022/01/14 00:39:44;;;;;;;6.90;6.30;;;14.90;55.80;15.70;102901.00;;;;5008245;28;20183;-47
2022/01/14 00:42:10;;;;;;;7.30;6.60;;;14.90;55.70;15.70;102898.00;;;;5008238;28;20565;-50
2022/01/14 00:44:36;;;;;;;7.50;6.80;;;14.80;55.60;15.70;102883.00;;;;5007995;28;20709;-50
2022/01/14 00:47:02;;;;;;;7.00;6.40;;;14.80;55.60;15.60;102905.00;;;;5006375;28;20240;-49
2022/01/14 00:49:28;;;;;;;7.10;6.50;;;14.80;55.60;15.60;102901.00;;;;5008568;28;20668;-50
2022/01/14 00:51:54;;;;;;;7.03;6.43;;;14.80;56.30;15.60;102902.00;;;;5007510;28;20171;-51
2022/01/14 00:54:19;;;;;;;6.93;6.33;;;14.80;55.80;15.70;102899.00;;;;5007482;28;20167;-50
2022/01/14 00:57:00;;;;;;;7.27;6.67;;;14.90;55.40;15.70;102910.00;;;;5007344;28;20767;-50
2022/01/14 00:59:25;;;;;;;7.00;6.40;;;14.90;55.40;15.70;102908.00;;;;5005958;28;20652;-50
2022/01/14 01:01:53;;;;;;;7.30;6.60;;;14.90;55.30;15.70;102920.00;;;;5007245;28;20176;-50
2022/01/14 01:04:28;;;;;;;7.03;6.43;;;14.90;55.30;15.70;102916.00;;;;5007772;28;20206;-49
2022/01/14 01:06:54;;;;;;;7.17;6.57;;;14.90;55.00;15.70;102903.00;;;;5007445;28;20258;-50
2022/01/14 01:09:23;;;;;;;7.10;6.50;;;14.90;55.00;15.70;102900.00;;;;5006253;28;20179;-49
2022/01/14 01:11:53;;;;;;;7.20;6.60;;;14.90;55.00;15.70;102875.00;;;;5006621;28;20174;-50
2022/01/14 01:14:28;;;;;;;6.77;6.17;;;14.90;55.00;15.70;102900.00;;;;5007541;28;20642;-50
2022/01/14 01:16:54;;;;;;;7.23;6.63;;;14.90;55.00;15.70;102902.00;;;;5007412;28;20199;-49
2022/01/14 01:19:20;;;;;;;7.70;7.00;;;14.80;54.90;15.70;102888.00;;;;5010589;28;20206;-50
2022/01/14 01:21:45;;;;;;;6.67;6.07;;;14.80;54.90;15.70;102885.00;;;;5009693;28;20675;-51
2022/01/14 01:24:14;;;;;;;6.47;5.87;;;14.80;54.60;15.70;102883.00;;;;5007952;28;20179;-50
2022/01/14 01:26:41;;;;;;;6.90;6.30;;;14.80;54.90;15.70;102878.00;;;;5007232;28;20276;-50
2022/01/14 01:31:35;;;;;;;7.07;6.47;;;14.70;54.50;15.70;102888.00;;;;5006001;28;20202;-49
2022/01/14 01:34:03;;;;;;;6.87;6.27;;;14.70;54.80;15.70;102889.00;;;;5007876;28;20582;-49
2022/01/14 01:36:29;;;;;;;6.43;5.90;;;14.70;54.80;15.70;102884.00;;;;5007016;28;20203;-48
2022/01/14 01:38:54;;;;;;;6.30;5.80;;;14.70;55.10;15.70;102878.00;;;;5007456;28;20175;-50
2022/01/14 01:41:20;;;;;;;7.33;6.63;;;14.70;54.80;15.60;102895.00;;;;5007095;28;20524;-50
2022/01/14 01:43:51;;;;;;;6.63;6.03;;;14.70;54.50;15.60;102881.00;;;;5006001;28;20650;-51
2022/01/14 01:46:19;;;;;;;6.60;6.00;;;14.60;54.50;15.60;102884.00;;;;5005820;28;20211;-48
2022/01/14 01:48:46;;;;;;;6.37;5.77;;;14.60;54.60;15.60;102881.00;;;;5006885;28;20200;-49
2022/01/14 01:51:12;;;;;;;6.27;5.77;;;14.60;54.40;15.60;102889.00;;;;5036119;28;20170;-49
2022/01/14 01:53:38;;;;;;;7.23;6.63;;;14.60;54.70;15.60;102872.00;;;;5052562;28;20174;-51
2022/01/14 01:56:04;;;;;;;6.47;5.97;;;14.60;54.70;15.60;102870.00;;;;5048469;28;20214;-50
2022/01/14 01:58:30;;;;;;;6.40;5.90;;;14.50;55.20;15.50;102866.00;;;;5046755;28;20671;-49
2022/01/14 02:00:55;;;;;;;6.30;5.80;;;14.60;54.40;15.50;102873.00;;;;5054194;28;20436;-50
2022/01/14 02:03:21;;;;;;;6.33;5.83;;;14.50;54.40;15.50;102879.00;;;;5064396;28;20171;-51
2022/01/14 02:05:47;;;;;;;6.60;6.00;;;14.50;54.70;15.50;102869.00;;;;5060521;28;20194;-49
2022/01/14 02:08:13;;;;;;;6.77;6.17;;;14.50;54.80;15.50;102866.00;;;;5051173;28;20208;-50
2022/01/14 02:10:39;;;;;;;6.80;6.20;;;14.40;54.70;15.50;102869.00;;;;5049594;28;20228;-48
2022/01/14 02:13:05;;;;;;;6.13;5.60;;;14.40;54.70;15.50;102857.00;;;;5050449;28;20185;-50
2022/01/14 02:15:47;;;;;;;6.40;5.90;;;14.40;54.60;15.40;102862.00;;;;5048731;28;20186;-50
2022/01/14 02:23:38;;;;;;;6.67;6.07;;;14.30;54.60;15.40;102858.00;;;;5048786;28;20258;-50
2022/01/14 02:26:04;;;;;;;6.50;5.90;;;14.30;54.70;15.30;102846.00;;;;5049788;28;20285;-51
2022/01/14 02:28:30;;;;;;;6.20;5.70;;;14.30;54.60;15.30;102854.00;;;;5050189;28;20261;-49
2022/01/14 02:30:56;;;;;;;7.53;5.90;;;14.30;54.80;15.30;102859.00;;;;5048468;28;20516;-48
2022/01/14 02:33:21;;;;;;;6.70;6.10;;;14.20;54.60;15.30;102849.00;;;;5050184;28;20182;-50
2022/01/14 02:35:49;;;;;;;6.00;5.50;;;14.20;54.60;15.30;102841.00;;;;5049500;28;20626;-50
2022/01/14 02:38:15;;;;;;;6.60;6.00;;;14.20;54.90;15.30;102846.00;;;;5057821;28;20184;-51
2022/01/14 02:40:41;;;;;;;6.37;5.83;;;14.30;54.70;15.30;102846.00;;;;5071108;28;20177;-50
2022/01/14 02:43:12;;;;;;;5.93;5.43;;;14.30;54.60;15.20;102850.00;;;;5056578;28;20318;-49
2022/01/14 02:45:38;;;;;;;5.90;5.40;;;14.20;54.70;15.20;102844.00;;;;5048273;28;20228;-48
2022/01/14 02:48:04;;;;;;;6.53;5.93;;;14.20;54.70;15.20;102851.00;;;;5051499;28;20234;-49
2022/01/14 02:51:17;;;;;;;6.37;5.87;;;14.20;54.80;15.20;102849.00;;;;5055442;28;20247;-50
2022/01/14 02:53:44;;;;;;;6.47;5.87;;;14.20;54.80;15.20;102844.00;;;;5039260;28;20214;-50
2022/01/14 02:56:19;;;;;;;6.03;5.53;;;14.20;54.60;15.20;102839.00;;;;5049323;28;20194;-49
2022/01/14 02:58:45;;;;;;;5.87;5.37;;;14.10;54.50;15.10;102843.00;;;;5049183;28;20190;-49
2022/01/14 03:01:13;;;;;;;6.10;5.60;;;14.10;54.60;15.10;102850.00;;;;5048617;28;20171;-48
2022/01/14 03:03:39;;;;;;;5.87;5.37;;;14.10;54.70;15.10;102844.00;;;;5047842;28;20173;-50
2022/01/14 03:06:06;;;;;;;6.07;5.47;;;14.00;54.60;15.10;102848.00;;;;5070955;28;20210;-50
2022/01/14 03:08:32;;;;;;;6.10;5.50;;;14.10;54.80;15.10;102850.00;;;;5059797;28;20167;-52
2022/01/14 03:11:10;;;;;;;6.30;5.80;;;14.10;54.90;15.10;102847.00;;;;5050463;28;20174;-49
2022/01/14 03:13:36;;;;;;;6.30;5.70;;;14.00;54.70;15.10;102852.00;;;;5049933;28;20163;-50
2022/01/14 03:16:02;;;;;;;5.97;5.47;;;14.10;54.60;15.10;102855.00;;;;5050214;28;20733;-50
2022/01/14 03:18:52;;;;;;;6.07;5.57;;;14.00;54.70;15.00;102834.00;;;;5050576;28;20488;-49
2022/01/14 03:21:17;;;;;;;5.90;5.40;;;14.10;54.70;15.00;102835.00;;;;5048561;28;20186;-49
2022/01/14 03:23:47;;;;;;;5.87;5.37;;;14.00;54.80;15.00;102830.00;;;;5049060;28;20221;-51
2022/01/14 03:26:14;;;;;;;5.97;5.47;;;14.00;54.80;15.00;102825.00;;;;5048425;28;20251;-50
2022/01/14 03:28:40;;;;;;;5.37;4.97;;;14.00;54.70;15.00;102809.00;;;;5048343;28;20340;-49
2022/01/14 03:31:07;;;;;;;5.60;5.10;;;13.90;54.70;14.90;102822.00;;;;5048470;28;20166;-50
2022/01/14 03:33:34;;;;;;;6.40;5.80;;;13.90;55.30;14.90;102813.00;;;;5049039;28;20632;-48
2022/01/14 03:36:00;;;;;;;5.63;5.13;;;13.90;55.30;14.90;102818.00;;;;5049349;28;20198;-49
2022/01/14 03:38:26;;;;;;;5.50;5.00;;;13.90;54.60;14.90;102798.00;;;;5048531;28;20298;-50
2022/01/14 03:40:51;;;;;;;6.20;5.60;;;13.90;54.80;14.90;102801.00;;;;5048192;28;20171;-50
2022/01/14 03:43:17;;;;;;;5.80;5.30;;;13.90;54.70;14.90;102798.00;;;;5048401;28;20567;-50
2022/01/14 03:45:43;;;;;;;5.93;5.43;;;13.80;54.50;14.90;102797.00;;;;5046539;28;20494;-49
2022/01/14 03:48:09;;;;;;;5.47;5.00;;;13.90;54.70;14.90;102791.00;;;;5048466;28;20174;-49
2022/01/14 03:50:35;;;;;;;5.80;5.30;;;13.90;54.60;14.80;102787.00;;;;5049537;28;20257;-50
2022/01/14 03:53:02;;;;;;;5.53;5.03;;;13.80;54.70;14.80;102788.00;;;;5052339;28;20170;-50
2022/01/14 03:55:27;;;;;;;5.60;5.20;;;13.80;54.80;14.80;102792.00;;;;5048157;28;20186;-50
2022/01/14 03:57:53;;;;;;;5.50;5.10;;;13.80;54.80;14.80;102790.00;;;;5047977;28;20188;-51
2022/01/14 04:00:19;;;;;;;6.10;5.60;;;13.80;54.80;14.80;102787.00;;;;5047985;28;20576;-50
2022/01/14 04:02:45;;;;;;;6.10;5.60;;;13.70;54.70;14.80;102765.00;;;;5049291;28;20192;-54
2022/01/14 04:05:11;;;;;;;5.63;5.13;;;13.80;54.80;14.80;102789.00;;;;5048858;28;20159;-49
2022/01/14 04:07:36;;;;;;;5.80;5.30;;;13.80;54.70;14.70;102772.00;;;;5047865;28;20236;-49
2022/01/14 04:10:04;;;;;;;5.20;4.80;;;13.80;54.70;14.50;102778.00;;;;5049073;28;20523;-50
2022/01/14 04:12:43;;;;;;;5.47;5.07;;;13.70;54.60;14.70;102782.00;;;;5049789;28;20174;-50
2022/01/14 04:17:57;;;;;;;5.30;4.80;;;13.70;54.50;14.70;102769.00;;;;5050560;28;20177;-50
2022/01/14 04:20:23;;;;;;;6.80;5.10;;;13.70;54.70;14.60;102769.00;;;;5047379;28;20174;-50
2022/01/14 04:22:49;;;;;;;5.70;5.20;;;13.70;55.20;14.60;102773.00;;;;5048095;28;20691;-50
2022/01/14 04:25:15;;;;;;;7.17;5.40;;;13.70;54.90;14.60;102762.00;;;;5039283;28;20192;-51
2022/01/14 04:27:41;;;;;;;9.30;5.30;;;13.70;54.80;14.60;102759.00;;;;5026503;28;20214;-49
2022/01/14 04:30:08;;;;;;;6.87;5.03;;;13.60;54.90;14.60;102767.00;;;;5026994;28;20707;-50
2022/01/14 04:32:33;;;;;;;7.30;5.13;;;13.60;55.10;14.60;102758.00;;;;5033186;28;20175;-51
2022/01/14 04:34:59;;;;;;;5.80;5.03;;;13.60;55.10;14.60;102758.00;;;;5028188;28;20178;-50
2022/01/14 04:37:25;;;;;;;9.23;5.33;;;13.60;55.30;14.60;102758.00;;;;5028063;28;20879;-50
2022/01/14 04:39:50;;;;;;;5.67;5.17;;;13.60;54.90;14.60;102761.00;;;;5035016;28;20171;-51
2022/01/14 04:42:16;;;;;;;5.80;5.20;;;13.60;55.00;14.60;102755.00;;;;5032523;28;20189;-51
2022/01/14 04:44:42;;;;;;;6.33;4.97;;;13.60;55.10;14.50;102750.00;;;;5029206;28;20175;-51
2022/01/14 04:47:17;;;;;;;5.53;5.03;;;13.60;55.20;14.50;102754.00;;;;5025524;28;20203;-50
2022/01/14 04:49:43;;;;;;;5.73;5.10;;;13.50;55.00;14.50;102761.00;;;;5033425;28;20175;-49
2022/01/14 04:52:09;;;;;;;5.87;4.67;;;13.50;55.60;14.50;102744.00;;;;5033408;28;20171;-51
2022/01/14 04:54:35;;;;;;;6.27;5.33;;;13.50;54.90;14.20;102754.00;;;;5027735;28;20205;-49
2022/01/14 04:57:01;;;;;;;5.60;5.10;;;13.50;54.80;14.50;102754.00;;;;5030121;28;20270;-53
2022/01/14 04:59:28;;;;;;;5.10;4.70;;;13.50;54.70;14.50;102742.00;;;;5032330;28;20792;-51
2022/01/14 05:01:56;;;;;;;6.00;5.50;;;13.50;54.70;14.50;102742.00;;;;5030996;28;20182;-49
2022/01/14 05:04:22;;;;;;;7.83;5.30;;;13.50;54.80;14.50;102757.00;;;;5031066;28;20182;-50
2022/01/14 05:06:55;;;;;;;5.97;5.40;;;13.50;54.90;14.40;102760.00;;;;5030763;28;20342;-50
2022/01/14 05:09:28;;;;;;;5.60;5.10;;;13.50;54.80;14.40;102768.00;;;;5030414;28;20163;-50
2022/01/14 05:11:58;;;;;;;5.60;5.10;;;13.40;54.90;14.40;102763.00;;;;5028845;28;20713;-52
2022/01/14 05:14:24;;;;;;;5.40;4.90;;;13.40;54.80;14.40;102758.00;;;;5027287;28;20160;-51
2022/01/14 05:16:50;;;;;;;5.27;4.80;;;13.40;54.90;14.40;102753.00;;;;5029224;28;20675;-50
2022/01/14 05:19:15;;;;;;;5.13;4.73;;;13.40;55.10;14.40;102767.00;;;;5029534;28;20186;-51
2022/01/14 05:21:41;;;;;;;6.33;5.20;;;13.40;55.30;14.40;102773.00;;;;5027554;28;20179;-50
2022/01/14 05:24:07;;;;;;;5.23;4.83;;;13.40;55.30;14.30;102757.00;;;;5026520;28;20831;-50
2022/01/14 05:26:33;;;;;;;5.30;4.80;;;13.30;55.20;14.30;102759.00;;;;5026033;28;20195;-51
2022/01/14 05:28:58;;;;;;;5.77;4.83;;;13.30;55.50;14.30;102755.00;;;;5026103;28;20182;-50
2022/01/14 05:31:48;;;;;;;5.97;4.77;;;13.30;55.50;14.30;102761.00;;;;5026414;28;20210;-51
2022/01/14 05:34:14;;;;;;;5.30;4.70;;;13.30;55.30;14.30;102760.00;;;;5025405;28;20885;-50
2022/01/14 05:36:39;;;;;;;6.00;5.40;;;13.30;55.50;14.30;102761.00;;;;5026251;28;20191;-50
2022/01/14 05:39:05;;;;;;;5.70;5.20;;;13.30;55.50;14.20;102749.00;;;;5027386;28;20175;-49
2022/01/14 05:41:31;;;;;;;10.83;5.80;;;13.20;55.20;14.20;102750.00;;;;5030161;28;20171;-50
2022/01/14 05:43:57;;;;;;;8.50;5.43;;;13.20;55.10;14.20;102758.00;;;;5031616;28;20171;-49
2022/01/14 05:46:22;;;;;;;10.40;6.13;;;13.20;55.10;14.20;102756.00;;;;5032036;28;20253;-50
2022/01/14 05:48:48;;;;;;;10.87;5.90;;;13.10;55.00;14.20;102754.00;;;;5035178;28;20542;-50
2022/01/14 05:51:14;;;;;;;10.93;6.57;;;13.20;55.00;14.10;102762.00;;;;5053241;28;20202;-51
2022/01/14 05:53:39;;;;;;;8.97;6.70;;;13.10;54.90;14.10;102767.00;;;;5050904;28;20178;-50
2022/01/14 05:56:05;;;;;;;8.77;6.80;;;13.10;55.10;14.10;102755.00;;;;5050098;28;20197;-50
2022/01/14 05:58:31;;;;;;;11.33;6.80;;;13.10;55.20;14.10;102758.00;;;;5049713;28;20691;-50
2022/01/14 06:00:57;;;;;;;9.10;6.70;;;13.10;55.00;14.10;102752.00;;;;5048968;28;20178;-51
2022/01/14 06:03:22;;;;;;;7.93;6.40;;;13.10;54.90;14.10;102754.00;;;;5049843;28;20250;-52
2022/01/14 06:05:49;;;;;;;9.03;6.67;;;13.10;55.00;14.10;102751.00;;;;5049107;28;20216;-50
2022/01/14 06:08:14;;;;;;;8.33;6.77;;;13.10;54.90;14.00;102753.00;;;;5050438;28;20250;-48
2022/01/14 06:10:40;;;;;;;11.47;6.30;;;13.00;54.80;14.00;102752.00;;;;5049852;28;20159;-49
2022/01/14 06:13:06;;;;;;;7.60;6.70;;;13.10;54.60;14.00;102749.00;;;;5037871;28;20175;-48
2022/01/14 06:15:32;;;;;;;8.67;7.20;;;13.00;54.80;14.00;102750.00;;;;5029560;28;20187;-48
2022/01/14 06:17:57;;;;;;;9.20;6.13;;;12.90;54.80;14.00;102752.00;;;;5030257;28;20198;-50
2022/01/14 06:20:23;;;;;;;11.67;7.20;;;12.90;55.00;14.00;102740.00;;;;5030702;28;20183;-50
2022/01/14 06:22:49;;;;;;;9.80;6.87;;;12.90;54.80;14.00;102734.00;;;;5030251;28;20178;-50
2022/01/14 06:25:15;;;;;;;8.37;6.67;;;13.00;54.90;13.90;102746.00;;;;5029125;28;20175;-51
2022/01/14 06:27:41;;;;;;;9.10;6.30;;;12.90;54.80;13.90;102748.00;;;;5028969;28;20696;-49
2022/01/14 06:30:07;;;;;;;8.20;6.30;;;12.90;54.80;13.90;102738.00;;;;5029767;28;20175;-50
2022/01/14 06:32:43;;;;;;;7.67;6.30;;;12.90;54.80;13.90;102745.00;;;;5029725;28;20174;-51
2022/01/14 06:35:10;;;;;;;6.20;5.60;;;12.90;54.80;13.90;102750.00;;;;5028719;28;20205;-50
2022/01/14 06:37:36;;;;;;;7.60;6.00;;;12.90;54.90;13.90;102752.00;;;;5029054;28;20166;-50
2022/01/14 06:40:02;;;;;;;6.60;6.00;;;12.90;54.90;13.90;102749.00;;;;5029470;28;20179;-50
2022/01/14 06:42:28;;;;;;;8.90;6.30;;;12.90;55.00;13.90;102736.00;;;;5029357;28;20171;-49
2022/01/14 06:44:54;;;;;;;6.43;5.83;;;12.90;54.90;13.90;102746.00;;;;5031570;28;20201;-51
2022/01/14 06:47:20;;;;;;;6.43;5.60;;;12.90;55.00;13.90;102751.00;;;;5032186;28;20207;-50
2022/01/14 06:49:45;;;;;;;7.47;5.30;;;12.90;54.80;13.80;102752.00;;;;5030508;28;20182;-50
2022/01/14 06:52:11;;;;;;;6.77;5.80;;;12.80;54.80;13.80;102756.00;;;;5035362;28;20174;-50
2022/01/14 06:54:37;;;;;;;6.67;5.87;;;12.90;54.80;13.80;102753.00;;;;5032025;28;20167;-50
2022/01/14 06:57:03;;;;;;;6.07;5.47;;;12.80;54.80;13.80;102736.00;;;;5030232;28;20203;-50
2022/01/14 06:59:29;;;;;;;6.20;5.60;;;12.80;54.80;13.70;102747.00;;;;5030919;28;20680;-48
2022/01/14 07:01:55;;;;;;;6.20;5.60;;;12.80;54.70;13.80;102744.00;;;;5030262;28;20234;-50
2022/01/14 07:04:20;;;;;;;5.70;5.20;;;12.80;54.70;13.80;102738.00;;;;5030217;28;20216;-51
2022/01/14 07:06:46;;;;;;;6.33;5.73;;;12.80;55.00;13.80;102742.00;;;;5028367;28;20587;-50
2022/01/14 07:09:12;;;;;;;5.70;5.20;;;12.80;55.00;13.70;102738.00;;;;5029291;28;20677;-51
2022/01/14 07:11:38;;;;;;;5.93;5.43;;;12.70;55.00;13.70;102739.00;;;;5028867;28;20175;-50
2022/01/14 07:14:04;;;;;;;6.03;5.43;;;12.80;55.00;13.70;102732.00;;;;5028834;28;20163;-50
2022/01/14 07:16:30;;;;;;;5.53;5.03;;;12.70;55.00;13.70;102723.00;;;;5027211;28;20226;-51
2022/01/14 07:18:55;;;;;;;6.30;5.70;;;12.70;55.00;13.70;102726.00;;;;5027819;28;20203;-50
2022/01/14 07:21:21;;;;;;;6.87;5.57;;;12.70;54.90;13.70;102724.00;;;;5029196;28;20182;-50
2022/01/14 07:23:47;;;;;;;6.03;5.30;;;12.70;55.00;13.70;102722.00;;;;5028507;28;20182;-50
2022/01/14 07:26:13;;;;;;;5.73;5.23;;;12.70;55.10;13.70;102725.00;;;;5028021;28;20207;-50
2022/01/14 07:28:38;;;;;;;5.90;5.30;;;12.70;55.00;13.70;102729.00;;;;5028854;28;20171;-50
2022/01/14 07:31:04;;;;;;;6.53;5.60;;;12.70;55.00;13.60;102723.00;;;;5028944;28;20174;-50
2022/01/14 07:33:30;;;;;;;5.63;5.07;;;12.60;54.90;13.60;102735.00;;;;5028912;28;20167;-50
2022/01/14 07:35:55;;;;;;;5.87;5.27;;;12.60;54.90;13.60;102738.00;;;;5027761;28;20229;-48
2022/01/14 07:38:21;;;;;;;6.03;5.43;;;12.60;54.90;13.60;102734.00;;;;5026936;28;20179;-50
2022/01/14 07:40:47;;;;;;;5.60;5.10;;;12.60;54.90;13.60;102743.00;;;;5028939;28;20171;-49
2022/01/14 07:43:13;;;;;;;6.20;5.70;;;12.60;54.90;13.60;102730.00;;;;5029115;28;20182;-53
2022/01/14 07:45:38;;;;;;;5.77;5.20;;;12.60;54.90;13.60;102687.00;;;;5028474;28;20187;-49
2022/01/14 07:48:04;;;;;;;5.90;5.30;;;12.60;54.90;13.60;102737.00;;;;5028142;28;20860;-50
2022/01/14 07:50:30;;;;;;;5.77;5.27;;;12.60;54.90;13.60;102748.00;;;;5027986;28;20175;-50
2022/01/14 07:52:56;;;;;;;5.40;4.90;;;12.60;54.90;13.50;102745.00;;;;5028160;28;20178;-50
2022/01/14 07:55:21;;;;;;;5.90;5.40;;;12.50;55.00;13.50;102744.00;;;;5027796;28;20733;-50
2022/01/14 07:57:47;;;;;;;5.83;5.23;;;12.50;54.80;13.50;102742.00;;;;5027944;28;20233;-51
2022/01/14 08:00:13;;;;;;;5.87;5.37;;;12.50;54.90;13.50;102745.00;;;;5027926;28;20305;-51
2022/01/14 08:02:39;;;;;;;6.00;5.43;;;12.50;54.80;13.50;102750.00;;;;5026470;28;20171;-48
2022/01/14 08:05:06;;;;;;;5.87;5.37;;;12.50;55.00;13.50;102750.00;;;;5027710;28;20178;-49
2022/01/14 08:07:34;;;;;;;5.50;5.00;;;12.50;55.00;13.50;102762.00;;;;5027619;28;20636;-50
2022/01/14 08:10:00;;;;;;;6.00;5.50;;;12.50;55.10;13.50;102748.00;;;;5028271;28;20175;-51
2022/01/14 08:12:25;;;;;;;5.57;5.07;;;12.40;54.90;13.40;102757.00;;;;5027080;28;20168;-50
2022/01/14 08:14:51;;;;;;;6.10;5.50;;;12.40;54.90;13.40;102756.00;;;;5026900;28;20178;-50
2022/01/14 08:17:19;;;;;;;5.50;5.00;;;12.40;54.80;13.40;102752.00;;;;5027693;28;20731;-51
2022/01/14 08:19:45;;;;;;;5.80;5.30;;;12.40;54.90;13.40;102747.00;;;;5027328;28;20317;-51
2022/01/14 08:22:11;;;;;;;6.13;5.63;;;12.40;55.10;13.40;102755.00;;;;5027058;28;20658;-48
2022/01/14 08:24:37;;;;;;;6.00;5.50;;;12.30;55.00;13.40;102750.00;;;;5027264;28;20222;-47
2022/01/14 08:27:05;;;;;;;6.20;5.67;;;12.30;55.10;13.40;102739.00;;;;5026625;28;20653;-49
2022/01/14 08:29:32;;;;;;;6.23;5.37;;;12.30;55.80;13.30;102758.00;;;;5028423;28;20164;-48
2022/01/14 08:31:58;;;;;;;7.63;5.60;;;12.30;55.10;13.30;102759.00;;;;5026115;28;20185;-50
2022/01/14 08:34:24;;;;;;;5.97;5.47;;;12.40;55.20;13.30;102778.00;;;;5031741;28;20183;-51
2022/01/14 08:36:50;;;;;;;5.77;5.27;;;12.20;55.60;13.30;102760.00;;;;5025551;28;20837;-51
2022/01/14 08:39:16;;;;;;;6.47;5.70;;;12.20;56.20;13.20;102764.00;;;;5026972;28;20305;-50
2022/01/14 08:41:42;;;;;;;6.03;5.43;;;12.10;56.40;13.20;102756.00;;;;5029149;28;20179;-52
2022/01/14 08:44:08;;;;;;;8.77;5.80;;;12.10;56.50;13.20;102762.00;;;;5033893;28;20182;-50
2022/01/14 08:46:34;;;;;;;7.30;5.57;;;12.20;56.70;13.20;102761.00;;;;5035445;28;20205;-51
2022/01/14 08:49:01;;;;;;;6.60;5.17;;;12.40;56.50;13.20;102748.00;;;;5030130;28;20169;-51
2022/01/14 08:51:28;;;;;;;6.23;5.63;;;12.70;56.40;13.30;102759.00;;;;5029429;28;20193;-51
2022/01/14 08:53:54;;;;;;;7.03;5.40;;;12.90;56.00;13.40;102751.00;;;;5038435;28;20175;-50
2022/01/14 08:56:20;;;;;;;6.17;5.57;;;13.20;55.50;13.60;102741.00;;;;5034896;28;20195;-50
2022/01/14 08:58:45;;;;;;;5.53;5.03;;;13.50;55.20;13.70;102750.00;;;;5029458;28;20811;-50
2022/01/14 09:01:11;;;;;;;6.70;5.20;;;13.80;54.80;13.90;102750.00;;;;5032944;28;20179;-50
2022/01/14 09:03:37;;;;;;;5.50;5.00;;;14.20;54.30;14.10;102753.00;;;;5028977;28;20182;-50
2022/01/14 09:06:03;;;;;;;6.13;5.40;;;14.50;54.00;14.30;102749.00;;;;5029212;28;20198;-50
2022/01/14 09:08:30;;;;;;;6.50;5.83;;;14.80;53.60;14.30;102746.00;;;;5032677;28;20199;-52
2022/01/14 09:10:55;;;;;;;5.60;5.10;;;15.10;53.30;14.70;102740.00;;;;5032678;28;20207;-50
2022/01/14 09:13:21;;;;;;;6.83;5.00;;;15.30;53.10;14.90;102737.00;;;;5031498;28;20187;-50
2022/01/14 09:15:47;;;;;;;5.63;5.17;;;15.40;53.00;15.10;102753.00;;;;5031920;28;20194;-51
2022/01/14 09:18:12;;;;;;;6.00;5.50;;;15.60;53.00;15.20;102753.00;;;;5036548;28;20187;-50
2022/01/14 09:20:38;;;;;;;5.63;5.10;;;15.80;52.80;15.40;102752.00;;;;5033380;28;20213;-51
2022/01/14 09:23:04;;;;;;;5.60;5.17;;;16.00;52.60;15.60;102754.00;;;;5039426;28;20198;-50
2022/01/14 09:25:30;;;;;;;7.10;5.50;;;16.10;52.50;15.70;102748.00;;;;5036281;28;20884;-52
2022/01/14 09:27:56;;;;;;;5.43;4.87;;;16.20;52.90;15.80;102756.00;;;;5032137;28;20198;-51
2022/01/14 09:30:22;;;;;;;5.50;4.53;;;16.30;53.20;15.90;102752.00;;;;5032373;28;20202;-50
2022/01/14 09:32:47;;;;;;;11.13;5.10;;;16.30;53.40;16.00;102748.00;;;;5031936;28;20171;-49
2022/01/14 09:35:13;;;;;;;9.10;5.40;;;16.40;53.50;16.10;102733.00;;;;5032192;28;20526;-51
2022/01/14 09:37:41;;;;;;;9.93;5.00;;;16.40;53.60;16.20;102743.00;;;;5033135;28;20716;-49
2022/01/14 09:40:07;;;;;;;7.20;5.20;;;16.40;53.90;16.30;102738.00;;;;5032572;28;20258;-49
2022/01/14 09:42:32;;;;;;;7.07;5.00;;;16.50;54.10;16.40;102734.00;;;;5032266;28;20175;-50
2022/01/14 09:44:58;;;;;;;8.03;4.77;;;16.50;53.90;16.40;102750.00;;;;5030478;28;20717;-50
2022/01/14 09:47:24;;;;;;;9.30;4.93;;;16.50;54.10;16.50;102740.00;;;;5031596;28;20198;-50
2022/01/14 09:49:50;;;;;;;5.07;4.67;;;16.50;54.20;16.50;102734.00;;;;5031681;28;20238;-51
2022/01/14 09:52:17;;;;;;;6.40;4.60;;;16.50;54.60;16.50;102751.00;;;;5031507;28;20266;-50
2022/01/14 09:54:47;;;;;;;7.30;4.83;;;16.50;54.40;16.60;102754.00;;;;5031538;28;20175;-50
2022/01/14 09:57:16;;;;;;;7.33;4.77;;;16.50;54.50;16.60;102773.00;;;;5030228;28;20209;-50
2022/01/14 09:59:42;;;;;;;6.83;4.77;;;16.40;54.50;16.60;102766.00;;;;5031701;28;20178;-52
2022/01/14 10:02:08;;;;;;;5.50;5.00;;;16.40;54.40;16.60;102763.00;;;;5031650;28;20233;-48
2022/01/14 10:04:35;;;;;;;5.63;4.60;;;16.40;54.50;16.60;102772.00;;;;5031396;28;20186;-50
2022/01/14 10:07:01;;;;;;;7.63;4.60;;;16.40;54.40;16.60;102775.00;;;;5031313;28;20218;-50
2022/01/14 10:09:36;;;;;;;8.23;5.00;;;16.30;54.40;16.60;102791.00;;;;5030237;28;20175;-49
2022/01/14 10:12:16;;;;;;;5.33;4.83;;;16.30;54.60;16.60;102793.00;;;;5031474;28;20155;-49
2022/01/14 10:14:55;;;;;;;6.90;4.80;;;16.30;54.70;16.60;102791.00;;;;5039321;28;20862;-51
2022/01/14 10:17:21;;;;;;;6.33;4.53;;;16.30;54.70;16.60;102789.00;;;;5051342;28;20284;-50
2022/01/14 10:19:47;;;;;;;8.23;4.60;;;16.30;54.70;16.60;102797.00;;;;5050187;28;20475;-49
2022/01/14 10:22:28;;;;;;;8.40;4.67;;;16.20;54.70;16.60;102801.00;;;;5050973;28;20216;-50
2022/01/14 10:24:57;;;;;;;6.73;4.80;;;16.20;55.00;16.60;102799.00;;;;5049526;28;20208;-49
2022/01/14 10:27:42;;;;;;;13.80;5.47;;;16.30;55.00;16.60;102803.00;;;;5049291;28;20194;-51
2022/01/14 10:30:17;;;;;;;13.47;5.13;;;16.30;55.00;16.30;102805.00;;;;5050847;28;20154;-50
2022/01/14 10:32:46;;;;;;;11.43;5.23;;;16.20;55.20;16.60;102794.00;;;;5050821;28;20193;-50
2022/01/14 10:35:15;;;;;;;11.27;5.43;;;16.30;55.00;16.60;102782.00;;;;5049731;28;20265;-48
2022/01/14 10:37:41;;;;;;;7.83;5.23;;;16.40;54.90;16.70;102781.00;;;;5053726;28;20170;-49
2022/01/14 10:40:20;;;;;;;11.43;5.43;;;16.40;54.70;16.70;102763.00;;;;5053340;28;20181;-49
2022/01/14 10:42:49;;;;;;;8.40;5.50;;;16.50;54.60;16.70;102775.00;;;;5063839;28;20589;-49
2022/01/14 10:45:24;;;;;;;8.67;5.30;;;16.50;54.60;16.80;102767.00;;;;5064131;28;20238;-49
2022/01/14 10:48:05;;;;;;;10.30;5.17;;;16.60;54.50;16.80;102767.00;;;;5051889;28;20182;-49
2022/01/14 10:50:39;;;;;;;9.67;5.40;;;16.70;54.50;16.80;102756.00;;;;5050087;28;20162;-52
2022/01/14 10:53:09;;;;;;;8.47;5.50;;;16.60;54.50;16.90;102757.00;;;;5050783;28;20250;-48
2022/01/14 10:55:41;;;;;;;7.03;5.00;;;16.70;54.40;16.90;102751.00;;;;5056256;28;20190;-48
2022/01/14 10:58:25;;;;;;;9.30;5.43;;;16.70;54.30;17.00;102747.00;;;;5063515;28;20186;-50
2022/01/14 11:00:57;;;;;;;7.83;5.27;;;16.80;54.40;17.00;102731.00;;;;5069232;28;20166;-50
2022/01/14 11:03:38;;;;;;;6.83;5.13;;;16.80;54.40;17.00;102737.00;;;;5054854;28;20178;-50
2022/01/14 11:06:28;;;;;;;6.80;4.97;;;16.80;54.30;17.00;102724.00;;;;5051274;28;20201;-51
2022/01/14 11:09:17;;;;;;;8.13;5.57;;;16.90;54.30;17.10;102729.00;;;;5048235;28;20183;-50